THY9YQ ULLI-LTFM
Flight info
| Callsign | THY9YQ |
|---|---|
| Flight time | N/A |
| Altitude | 34000 |
| Route | TURAL1A TURAL L870 RESMO DCT KOLEV DCT VALGA M985 ERIVA DCT BOKSU/N0449F360 M985 SUWGI DCT PODAN DCT KEKED/N0446F350 DCT BADOR/N0445F370 DCT TIMUR L606 GASRU T390 RILEX |
| Aircraft | A320/M-SDE1E2E3FGHIJ1RWY/LB1 |
Departure
| Time | 2026-05-05 14:29 |
|---|---|
| Airport | Pulkovo Airport (ULLI) |
Arrival
| Time | N/A |
|---|---|
| Airport | İstanbul Airport (LTFM) |
| Time | Latitude | Longitude | Altitude | Speed | Heading |
|---|---|---|---|---|---|
| 2026-05-05 14:08 | 59.80055 | 30.26798 | 82 ft | 0 kts | 107° |
| 2026-05-05 14:18 | 59.80060 | 30.26757 | 85 ft | 4 kts | 94° |
| 2026-05-05 14:18 | 59.80058 | 30.26705 | 87 ft | 4 kts | 63° |
| 2026-05-05 14:19 | 59.80042 | 30.26672 | 83 ft | 3 kts | 17° |
| 2026-05-05 14:19 | 59.80020 | 30.26658 | 86 ft | 2 kts | 16° |
| 2026-05-05 14:19 | 59.80019 | 30.26657 | 85 ft | 0 kts | 16° |
| 2026-05-05 14:24 | 59.80041 | 30.26670 | 86 ft | 8 kts | 17° |
| 2026-05-05 14:24 | 59.80097 | 30.26704 | 81 ft | 11 kts | 17° |
| 2026-05-05 14:24 | 59.80181 | 30.26754 | 83 ft | 13 kts | 17° |
| 2026-05-05 14:24 | 59.80272 | 30.26808 | 81 ft | 15 kts | 17° |
| 2026-05-05 14:25 | 59.80375 | 30.26869 | 81 ft | 10 kts | 17° |
| 2026-05-05 14:25 | 59.80382 | 30.26877 | 80 ft | 2 kts | 30° |
| 2026-05-05 14:25 | 59.80386 | 30.26903 | 84 ft | 2 kts | 91° |
| 2026-05-05 14:25 | 59.80380 | 30.26966 | 82 ft | 8 kts | 107° |
| 2026-05-05 14:26 | 59.80356 | 30.27126 | 82 ft | 18 kts | 107° |
| 2026-05-05 14:26 | 59.80316 | 30.27384 | 84 ft | 20 kts | 107° |
| 2026-05-05 14:26 | 59.80275 | 30.27660 | 80 ft | 22 kts | 106° |
| 2026-05-05 14:26 | 59.80231 | 30.27956 | 82 ft | 23 kts | 106° |
| 2026-05-05 14:27 | 59.80184 | 30.28279 | 80 ft | 25 kts | 106° |
| 2026-05-05 14:27 | 59.80148 | 30.28525 | 79 ft | 10 kts | 98° |
| 2026-05-05 14:27 | 59.80190 | 30.28638 | 78 ft | 11 kts | 44° |
| 2026-05-05 14:27 | 59.80246 | 30.28768 | 67 ft | 13 kts | 50° |
| 2026-05-05 14:28 | 59.80298 | 30.28879 | 73 ft | 7 kts | 35° |
| 2026-05-05 14:28 | 59.80333 | 30.28830 | 72 ft | 8 kts | 287° |
| 2026-05-05 14:28 | 59.80353 | 30.28688 | 75 ft | 22 kts | 287° |
| 2026-05-05 14:28 | 59.80460 | 30.27988 | 78 ft | 83 kts | 286° |
| 2026-05-05 14:29 | 59.80676 | 30.26559 | 81 ft | 131 kts | 287° |
| 2026-05-05 14:29 | 59.80973 | 30.24583 | 180 ft | 157 kts | 288° |
| 2026-05-05 14:29 | 59.81244 | 30.22634 | 836 ft | 145 kts | 287° |
| 2026-05-05 14:29 | 59.81518 | 30.20691 | 1456 ft | 146 kts | 285° |
| 2026-05-05 14:30 | 59.81809 | 30.18749 | 1942 ft | 151 kts | 285° |
| 2026-05-05 14:30 | 59.82126 | 30.16599 | 2135 ft | 175 kts | 285° |
| 2026-05-05 14:30 | 59.82494 | 30.14104 | 2428 ft | 198 kts | 285° |
| 2026-05-05 14:30 | 59.82899 | 30.11346 | 2742 ft | 221 kts | 284° |
| 2026-05-05 14:31 | 59.83341 | 30.08332 | 3385 ft | 230 kts | 283° |
| 2026-05-05 14:31 | 59.83794 | 30.05243 | 4155 ft | 235 kts | 281° |
| 2026-05-05 14:31 | 59.84256 | 30.02078 | 4907 ft | 241 kts | 281° |
| 2026-05-05 14:31 | 59.84663 | 29.98858 | 5709 ft | 240 kts | 270° |
| 2026-05-05 14:32 | 59.84392 | 29.95668 | 6464 ft | 235 kts | 242° |
| 2026-05-05 14:32 | 59.83602 | 29.92834 | 7247 ft | 236 kts | 242° |
| 2026-05-05 14:32 | 59.82892 | 29.89883 | 8057 ft | 236 kts | 245° |
| 2026-05-05 14:32 | 59.82223 | 29.86883 | 8839 ft | 238 kts | 246° |
| 2026-05-05 14:33 | 59.81556 | 29.83858 | 9624 ft | 240 kts | 246° |
| 2026-05-05 14:33 | 59.80872 | 29.80792 | 10096 ft | 252 kts | 246° |
| 2026-05-05 14:33 | 59.80121 | 29.77479 | 10231 ft | 274 kts | 246° |
| 2026-05-05 14:33 | 59.79314 | 29.73968 | 10364 ft | 294 kts | 245° |
| 2026-05-05 14:34 | 59.78429 | 29.70156 | 10778 ft | 303 kts | 245° |
| 2026-05-05 14:34 | 59.77535 | 29.66338 | 11381 ft | 306 kts | 245° |
| 2026-05-05 14:34 | 59.76631 | 29.62495 | 12007 ft | 308 kts | 245° |
| 2026-05-05 14:34 | 59.75715 | 29.58617 | 12602 ft | 312 kts | 245° |
| 2026-05-05 14:35 | 59.74804 | 29.54765 | 13210 ft | 314 kts | 246° |
| 2026-05-05 14:35 | 59.73871 | 29.50828 | 13801 ft | 317 kts | 245° |
| 2026-05-05 14:35 | 59.72984 | 29.46862 | 14362 ft | 318 kts | 248° |
| 2026-05-05 14:35 | 59.72174 | 29.42753 | 14914 ft | 320 kts | 250° |
| 2026-05-05 14:36 | 59.71406 | 29.38588 | 15495 ft | 322 kts | 250° |
| 2026-05-05 14:36 | 59.70649 | 29.34392 | 16096 ft | 323 kts | 250° |
| 2026-05-05 14:36 | 59.69885 | 29.30186 | 16662 ft | 325 kts | 250° |
| 2026-05-05 14:36 | 59.69108 | 29.25972 | 17229 ft | 327 kts | 250° |
| 2026-05-05 14:37 | 59.68314 | 29.21727 | 17808 ft | 330 kts | 249° |
| 2026-05-05 14:37 | 59.67508 | 29.17468 | 18337 ft | 332 kts | 249° |
| 2026-05-05 14:37 | 59.66689 | 29.13175 | 18839 ft | 335 kts | 249° |
| 2026-05-05 14:37 | 59.65871 | 29.08916 | 19337 ft | 337 kts | 249° |
| 2026-05-05 14:38 | 59.65020 | 29.04494 | 19833 ft | 340 kts | 249° |
| 2026-05-05 14:38 | 59.64177 | 29.00108 | 20322 ft | 342 kts | 249° |
| 2026-05-05 14:38 | 59.63327 | 28.95702 | 20790 ft | 345 kts | 249° |
| 2026-05-05 14:38 | 59.62465 | 28.91256 | 21227 ft | 347 kts | 249° |
| 2026-05-05 14:39 | 59.61559 | 28.86605 | 21623 ft | 350 kts | 249° |
| 2026-05-05 14:39 | 59.60677 | 28.82092 | 21981 ft | 354 kts | 249° |
| 2026-05-05 14:39 | 59.59787 | 28.77542 | 22379 ft | 357 kts | 250° |
| 2026-05-05 14:39 | 59.58896 | 28.72957 | 22786 ft | 359 kts | 250° |
| 2026-05-05 14:40 | 59.57998 | 28.68343 | 23177 ft | 362 kts | 250° |
| 2026-05-05 14:40 | 59.57092 | 28.63696 | 23515 ft | 364 kts | 250° |
| 2026-05-05 14:40 | 59.56176 | 28.59021 | 23838 ft | 366 kts | 249° |
| 2026-05-05 14:40 | 59.55253 | 28.54337 | 24161 ft | 368 kts | 249° |
| 2026-05-05 14:41 | 59.54319 | 28.49622 | 24477 ft | 370 kts | 249° |
| 2026-05-05 14:41 | 59.53382 | 28.44898 | 24786 ft | 371 kts | 249° |
| 2026-05-05 14:41 | 59.52437 | 28.40144 | 25141 ft | 373 kts | 249° |
| 2026-05-05 14:41 | 59.51490 | 28.35402 | 25531 ft | 372 kts | 249° |
| 2026-05-05 14:42 | 59.50540 | 28.30656 | 25876 ft | 373 kts | 249° |
| 2026-05-05 14:42 | 59.49594 | 28.25961 | 26181 ft | 375 kts | 249° |
| 2026-05-05 14:42 | 59.48633 | 28.21200 | 26555 ft | 374 kts | 249° |
| 2026-05-05 14:42 | 59.47671 | 28.16449 | 26994 ft | 373 kts | 249° |
| 2026-05-05 14:43 | 59.46711 | 28.11718 | 27359 ft | 373 kts | 249° |
| 2026-05-05 14:43 | 59.45750 | 28.06972 | 27695 ft | 374 kts | 249° |
| 2026-05-05 14:43 | 59.44787 | 28.02219 | 28085 ft | 374 kts | 249° |
| 2026-05-05 14:43 | 59.43826 | 27.97481 | 28501 ft | 373 kts | 249° |
| 2026-05-05 14:44 | 59.42860 | 27.92747 | 28923 ft | 372 kts | 249° |
| 2026-05-05 14:44 | 59.41894 | 27.88028 | 29348 ft | 372 kts | 249° |
| 2026-05-05 14:44 | 59.40930 | 27.83329 | 29762 ft | 371 kts | 249° |
| 2026-05-05 14:44 | 59.39967 | 27.78639 | 30132 ft | 370 kts | 249° |
| 2026-05-05 14:45 | 59.39005 | 27.73953 | 30488 ft | 370 kts | 249° |
| 2026-05-05 14:45 | 59.38041 | 27.69285 | 30850 ft | 369 kts | 248° |
| 2026-05-05 14:45 | 59.37073 | 27.64624 | 31213 ft | 368 kts | 248° |
| 2026-05-05 14:45 | 59.36108 | 27.59978 | 31578 ft | 368 kts | 249° |
| 2026-05-05 14:46 | 59.35131 | 27.55359 | 31943 ft | 367 kts | 245° |
| 2026-05-05 14:46 | 59.33835 | 27.51046 | 32300 ft | 369 kts | 236° |
| 2026-05-05 14:46 | 59.32120 | 27.47289 | 32650 ft | 373 kts | 226° |
| 2026-05-05 14:46 | 59.30025 | 27.44218 | 32955 ft | 379 kts | 218° |
| 2026-05-05 14:47 | 59.27830 | 27.41481 | 33209 ft | 380 kts | 218° |
| 2026-05-05 14:47 | 59.25598 | 27.38702 | 33512 ft | 380 kts | 218° |
| 2026-05-05 14:47 | 59.23365 | 27.35925 | 33744 ft | 381 kts | 218° |
| 2026-05-05 14:47 | 59.21114 | 27.33124 | 33781 ft | 387 kts | 218° |
| 2026-05-05 14:48 | 59.16499 | 27.27373 | 33780 ft | 398 kts | 217° |
| 2026-05-05 14:48 | 59.11801 | 27.21564 | 33780 ft | 400 kts | 217° |
| 2026-05-05 14:49 | 59.07092 | 27.15765 | 33780 ft | 400 kts | 217° |
| 2026-05-05 14:49 | 59.02374 | 27.09961 | 33781 ft | 403 kts | 217° |
| 2026-05-05 14:50 | 58.97635 | 27.04153 | 33782 ft | 403 kts | 217° |
| 2026-05-05 14:50 | 58.92886 | 26.98349 | 33785 ft | 404 kts | 217° |
| 2026-05-05 14:51 | 58.88154 | 26.92600 | 33790 ft | 404 kts | 217° |
| 2026-05-05 14:51 | 58.83394 | 26.86825 | 33795 ft | 404 kts | 217° |
| 2026-05-05 14:52 | 58.78629 | 26.81052 | 33820 ft | 404 kts | 217° |
| 2026-05-05 14:52 | 58.73872 | 26.75306 | 33819 ft | 403 kts | 217° |
| 2026-05-05 14:53 | 58.68906 | 26.70185 | 33809 ft | 406 kts | 212° |
| 2026-05-05 14:53 | 58.63849 | 26.65322 | 33775 ft | 406 kts | 212° |
| 2026-05-05 14:54 | 58.58792 | 26.60458 | 33781 ft | 407 kts | 212° |
| 2026-05-05 14:54 | 58.53723 | 26.55604 | 33766 ft | 407 kts | 212° |
| 2026-05-05 14:55 | 58.49482 | 26.51552 | 33784 ft | 407 kts | 212° |
| 2026-05-05 14:55 | 58.44454 | 26.46759 | 33806 ft | 406 kts | 212° |
| 2026-05-05 14:56 | 58.39390 | 26.41947 | 33809 ft | 407 kts | 212° |
| 2026-05-05 14:56 | 58.34320 | 26.37162 | 33804 ft | 407 kts | 212° |
| 2026-05-05 14:57 | 58.29259 | 26.32374 | 33778 ft | 406 kts | 212° |
| 2026-05-05 14:57 | 58.24210 | 26.27617 | 33806 ft | 404 kts | 212° |
| 2026-05-05 14:58 | 58.19174 | 26.22895 | 33824 ft | 404 kts | 212° |
| 2026-05-05 14:58 | 58.14138 | 26.18202 | 33831 ft | 403 kts | 212° |
| 2026-05-05 14:59 | 58.09111 | 26.13522 | 33833 ft | 403 kts | 212° |
| 2026-05-05 14:59 | 58.04085 | 26.08847 | 33809 ft | 402 kts | 212° |
| 2026-05-05 15:00 | 57.99918 | 26.04984 | 33834 ft | 401 kts | 212° |
| 2026-05-05 15:00 | 57.94102 | 25.99626 | 33838 ft | 399 kts | 212° |
| 2026-05-05 15:01 | 57.89110 | 25.95032 | 33838 ft | 399 kts | 212° |
| 2026-05-05 15:01 | 57.84130 | 25.90471 | 33839 ft | 398 kts | 212° |
| 2026-05-05 15:02 | 57.79140 | 25.85953 | 33799 ft | 398 kts | 212° |
| 2026-05-05 15:02 | 57.74158 | 25.81485 | 33830 ft | 396 kts | 212° |
| 2026-05-05 15:03 | 57.69195 | 25.77034 | 33835 ft | 395 kts | 212° |
| 2026-05-05 15:03 | 57.64243 | 25.72592 | 33839 ft | 395 kts | 212° |
| 2026-05-05 15:04 | 57.59287 | 25.68171 | 33838 ft | 395 kts | 212° |
| 2026-05-05 15:04 | 57.54331 | 25.63772 | 33808 ft | 394 kts | 211° |
| 2026-05-05 15:05 | 57.46941 | 25.57227 | 33829 ft | 393 kts | 211° |
| 2026-05-05 15:06 | 57.41971 | 25.52840 | 33839 ft | 393 kts | 211° |
| 2026-05-05 15:06 | 57.37072 | 25.48520 | 33839 ft | 392 kts | 211° |
| 2026-05-05 15:07 | 57.32147 | 25.44187 | 33839 ft | 392 kts | 211° |
| 2026-05-05 15:07 | 57.27212 | 25.39870 | 33819 ft | 392 kts | 211° |
| 2026-05-05 15:08 | 57.22284 | 25.35563 | 33828 ft | 392 kts | 211° |
| 2026-05-05 15:08 | 57.17345 | 25.31274 | 33834 ft | 392 kts | 211° |
| 2026-05-05 15:09 | 57.12408 | 25.27003 | 33839 ft | 392 kts | 211° |
| 2026-05-05 15:09 | 57.07472 | 25.22738 | 33840 ft | 392 kts | 211° |
| 2026-05-05 15:10 | 57.02538 | 25.18477 | 33801 ft | 392 kts | 211° |
| 2026-05-05 15:10 | 56.97587 | 25.14214 | 33809 ft | 393 kts | 211° |
| 2026-05-05 15:11 | 56.92630 | 25.09962 | 33815 ft | 394 kts | 211° |
| 2026-05-05 15:11 | 56.87663 | 25.05716 | 33822 ft | 394 kts | 211° |
| 2026-05-05 15:12 | 56.82683 | 25.01480 | 33829 ft | 395 kts | 211° |
| 2026-05-05 15:12 | 56.77701 | 24.97248 | 33804 ft | 395 kts | 211° |
| 2026-05-05 15:13 | 56.72751 | 24.93043 | 33818 ft | 395 kts | 211° |
| 2026-05-05 15:13 | 56.67765 | 24.88825 | 33826 ft | 395 kts | 210° |
| 2026-05-05 15:14 | 56.62774 | 24.84636 | 33831 ft | 395 kts | 210° |
| 2026-05-05 15:14 | 56.57777 | 24.80448 | 33835 ft | 395 kts | 210° |
| 2026-05-05 15:15 | 56.52781 | 24.76262 | 33811 ft | 395 kts | 210° |
| 2026-05-05 15:15 | 56.47784 | 24.72093 | 33829 ft | 395 kts | 210° |
| 2026-05-05 15:16 | 56.42791 | 24.67936 | 33842 ft | 395 kts | 210° |
| 2026-05-05 15:16 | 56.37801 | 24.63787 | 33848 ft | 395 kts | 210° |
| 2026-05-05 15:17 | 56.32799 | 24.59692 | 33849 ft | 395 kts | 210° |
| 2026-05-05 15:17 | 56.27774 | 24.55669 | 33846 ft | 395 kts | 209° |
| 2026-05-05 15:18 | 56.22746 | 24.51650 | 33851 ft | 395 kts | 210° |
| 2026-05-05 15:18 | 56.17714 | 24.47634 | 33856 ft | 396 kts | 209° |
| 2026-05-05 15:19 | 56.12683 | 24.43626 | 33856 ft | 396 kts | 210° |
| 2026-05-05 15:19 | 56.07657 | 24.39633 | 33857 ft | 395 kts | 209° |
| 2026-05-05 15:20 | 56.02653 | 24.35678 | 33841 ft | 395 kts | 209° |
| 2026-05-05 15:20 | 55.97625 | 24.31706 | 33845 ft | 395 kts | 209° |
| 2026-05-05 15:21 | 55.92598 | 24.27746 | 33858 ft | 395 kts | 209° |
| 2026-05-05 15:21 | 55.87576 | 24.23797 | 33860 ft | 395 kts | 209° |
| 2026-05-05 15:22 | 55.82553 | 24.19860 | 33859 ft | 395 kts | 209° |
| 2026-05-05 15:22 | 55.77521 | 24.15926 | 33832 ft | 395 kts | 209° |
| 2026-05-05 15:23 | 55.72490 | 24.11996 | 33847 ft | 395 kts | 209° |
| 2026-05-05 15:23 | 55.67453 | 24.08074 | 33856 ft | 396 kts | 209° |
| 2026-05-05 15:24 | 55.62407 | 24.04167 | 33870 ft | 396 kts | 209° |
| 2026-05-05 15:24 | 55.57361 | 24.00271 | 33876 ft | 396 kts | 209° |
| 2026-05-05 15:25 | 55.52303 | 23.96382 | 33856 ft | 396 kts | 208° |
| 2026-05-05 15:25 | 55.47246 | 23.92499 | 33863 ft | 397 kts | 208° |
| 2026-05-05 15:26 | 55.42172 | 23.88611 | 33870 ft | 397 kts | 208° |
| 2026-05-05 15:26 | 55.37096 | 23.84734 | 33876 ft | 398 kts | 208° |
| 2026-05-05 15:27 | 55.32010 | 23.80871 | 33878 ft | 398 kts | 208° |
| 2026-05-05 15:27 | 55.26953 | 23.77034 | 33860 ft | 399 kts | 208° |
| 2026-05-05 15:28 | 55.21859 | 23.73162 | 33876 ft | 399 kts | 208° |
| 2026-05-05 15:28 | 55.16763 | 23.69301 | 33882 ft | 399 kts | 208° |
| 2026-05-05 15:29 | 55.11656 | 23.65459 | 33881 ft | 399 kts | 208° |
| 2026-05-05 15:29 | 55.06544 | 23.61625 | 33861 ft | 399 kts | 208° |
| 2026-05-05 15:30 | 55.01443 | 23.57801 | 33876 ft | 399 kts | 208° |
| 2026-05-05 15:30 | 54.96339 | 23.53976 | 33858 ft | 399 kts | 208° |
| 2026-05-05 15:31 | 54.91222 | 23.50171 | 33866 ft | 400 kts | 208° |
| 2026-05-05 15:31 | 54.86099 | 23.46378 | 33867 ft | 401 kts | 208° |
| 2026-05-05 15:32 | 54.80966 | 23.42581 | 33851 ft | 401 kts | 207° |
| 2026-05-05 15:32 | 54.75855 | 23.38799 | 33857 ft | 402 kts | 207° |
| 2026-05-05 15:33 | 54.70702 | 23.34989 | 33862 ft | 403 kts | 207° |
| 2026-05-05 15:33 | 54.65534 | 23.31188 | 33868 ft | 404 kts | 207° |
| 2026-05-05 15:34 | 54.60353 | 23.27403 | 33875 ft | 404 kts | 207° |
| 2026-05-05 15:34 | 54.55172 | 23.23628 | 33860 ft | 405 kts | 207° |
| 2026-05-05 15:35 | 54.49968 | 23.19832 | 33863 ft | 406 kts | 207° |
| 2026-05-05 15:35 | 54.44792 | 23.16063 | 33864 ft | 407 kts | 207° |
| 2026-05-05 15:36 | 54.39574 | 23.12276 | 33868 ft | 407 kts | 207° |
| 2026-05-05 15:36 | 54.34311 | 23.08478 | 33874 ft | 408 kts | 207° |
| 2026-05-05 15:37 | 54.29095 | 23.04744 | 33852 ft | 410 kts | 206° |
| 2026-05-05 15:37 | 54.23769 | 23.01143 | 33856 ft | 412 kts | 205° |
| 2026-05-05 15:38 | 54.18409 | 22.97616 | 33857 ft | 413 kts | 205° |
| 2026-05-05 15:38 | 54.13051 | 22.94079 | 33863 ft | 413 kts | 205° |
| 2026-05-05 15:39 | 54.07687 | 22.90544 | 33844 ft | 414 kts | 202° |
| 2026-05-05 15:39 | 54.02033 | 22.88308 | 33852 ft | 418 kts | 196° |
| 2026-05-05 15:40 | 53.96322 | 22.86326 | 33863 ft | 419 kts | 196° |
| 2026-05-05 15:40 | 53.90608 | 22.84340 | 33871 ft | 419 kts | 196° |
| 2026-05-05 15:41 | 53.85821 | 22.82687 | 33868 ft | 419 kts | 196° |
| 2026-05-05 15:41 | 53.80108 | 22.80725 | 33872 ft | 419 kts | 196° |
| 2026-05-05 15:42 | 53.74438 | 22.78770 | 33862 ft | 419 kts | 196° |
| 2026-05-05 15:42 | 53.68718 | 22.76808 | 33868 ft | 419 kts | 196° |
| 2026-05-05 15:43 | 53.63003 | 22.74860 | 33869 ft | 419 kts | 196° |
| 2026-05-05 15:43 | 53.57292 | 22.72906 | 33852 ft | 419 kts | 195° |
| 2026-05-05 15:44 | 53.51581 | 22.70964 | 33864 ft | 418 kts | 195° |
| 2026-05-05 15:44 | 53.45881 | 22.69030 | 33853 ft | 418 kts | 195° |
| 2026-05-05 15:45 | 53.40182 | 22.67093 | 33859 ft | 418 kts | 195° |
| 2026-05-05 15:45 | 53.34487 | 22.65165 | 33832 ft | 418 kts | 195° |
| 2026-05-05 15:46 | 53.28781 | 22.63261 | 33805 ft | 419 kts | 195° |
| 2026-05-05 15:46 | 53.23045 | 22.61337 | 33809 ft | 421 kts | 195° |
| 2026-05-05 15:47 | 53.17292 | 22.59403 | 33810 ft | 423 kts | 195° |
| 2026-05-05 15:47 | 53.11516 | 22.57470 | 33812 ft | 423 kts | 195° |
| 2026-05-05 15:48 | 53.05736 | 22.55547 | 33791 ft | 424 kts | 195° |
| 2026-05-05 15:48 | 52.99932 | 22.53627 | 33794 ft | 426 kts | 195° |
| 2026-05-05 15:49 | 52.94157 | 22.51718 | 33802 ft | 426 kts | 195° |
| 2026-05-05 15:49 | 52.88338 | 22.49802 | 33806 ft | 426 kts | 195° |
| 2026-05-05 15:50 | 52.82510 | 22.47881 | 33796 ft | 427 kts | 195° |
| 2026-05-05 15:50 | 52.76672 | 22.45954 | 33793 ft | 428 kts | 195° |
| 2026-05-05 15:51 | 52.70824 | 22.44048 | 33805 ft | 429 kts | 194° |
| 2026-05-05 15:51 | 52.64969 | 22.42140 | 33807 ft | 429 kts | 195° |
| 2026-05-05 15:52 | 52.59122 | 22.40227 | 33801 ft | 429 kts | 194° |
| 2026-05-05 15:52 | 52.53269 | 22.38326 | 33809 ft | 429 kts | 194° |
| 2026-05-05 15:53 | 52.47411 | 22.36430 | 33811 ft | 429 kts | 194° |
| 2026-05-05 15:53 | 52.41558 | 22.34540 | 33813 ft | 429 kts | 194° |
| 2026-05-05 15:54 | 52.35701 | 22.32658 | 33798 ft | 429 kts | 194° |
| 2026-05-05 15:54 | 52.29840 | 22.30786 | 33800 ft | 429 kts | 194° |
| 2026-05-05 15:55 | 52.24011 | 22.28912 | 33798 ft | 430 kts | 194° |
| 2026-05-05 15:55 | 52.18124 | 22.27032 | 33798 ft | 432 kts | 194° |
| 2026-05-05 15:56 | 52.12224 | 22.25153 | 33802 ft | 432 kts | 194° |
| 2026-05-05 15:56 | 52.06306 | 22.23273 | 33795 ft | 433 kts | 194° |
| 2026-05-05 15:57 | 52.00387 | 22.21389 | 33802 ft | 433 kts | 194° |
| 2026-05-05 15:57 | 51.94467 | 22.19525 | 33806 ft | 433 kts | 194° |
| 2026-05-05 15:58 | 51.88585 | 22.17676 | 33814 ft | 433 kts | 194° |
| 2026-05-05 15:58 | 51.82660 | 22.15811 | 33807 ft | 434 kts | 194° |
| 2026-05-05 15:59 | 51.76735 | 22.13950 | 33811 ft | 434 kts | 194° |
| 2026-05-05 15:59 | 51.70805 | 22.12097 | 33816 ft | 434 kts | 194° |
| 2026-05-05 16:00 | 51.64873 | 22.10246 | 33825 ft | 434 kts | 194° |
| 2026-05-05 16:00 | 51.58935 | 22.08401 | 33816 ft | 434 kts | 194° |
| 2026-05-05 16:01 | 51.53002 | 22.06568 | 33816 ft | 434 kts | 194° |
| 2026-05-05 16:01 | 51.47062 | 22.04733 | 33825 ft | 434 kts | 194° |
| 2026-05-05 16:02 | 51.42129 | 22.03204 | 33825 ft | 434 kts | 194° |
| 2026-05-05 16:02 | 51.37730 | 22.01847 | 33823 ft | 434 kts | 194° |
| 2026-05-05 16:03 | 51.31801 | 22.00016 | 33824 ft | 434 kts | 194° |
| 2026-05-05 16:03 | 51.25862 | 21.98198 | 33797 ft | 435 kts | 194° |
| 2026-05-05 16:04 | 51.19944 | 21.96391 | 33796 ft | 436 kts | 194° |
| 2026-05-05 16:04 | 51.13984 | 21.94571 | 33789 ft | 436 kts | 194° |
| 2026-05-05 16:05 | 51.08014 | 21.92760 | 33808 ft | 437 kts | 194° |
| 2026-05-05 16:05 | 51.03322 | 21.91338 | 33814 ft | 437 kts | 194° |
| 2026-05-05 16:06 | 51.00136 | 21.90419 | 33818 ft | 438 kts | 194° |
| 2026-05-05 16:07 | 50.94154 | 21.88615 | 33818 ft | 438 kts | 194° |
| 2026-05-05 16:07 | 50.88172 | 21.86777 | 33816 ft | 438 kts | 194° |
| 2026-05-05 16:08 | 50.82190 | 21.84960 | 33818 ft | 438 kts | 194° |
| 2026-05-05 16:08 | 50.76199 | 21.83164 | 33821 ft | 438 kts | 194° |
| 2026-05-05 16:09 | 50.70211 | 21.81380 | 33827 ft | 438 kts | 194° |
| 2026-05-05 16:09 | 50.64217 | 21.79598 | 33819 ft | 438 kts | 193° |
| 2026-05-05 16:10 | 50.58225 | 21.77817 | 33822 ft | 438 kts | 193° |
| 2026-05-05 16:10 | 50.52234 | 21.76030 | 33823 ft | 438 kts | 194° |
| 2026-05-05 16:11 | 50.46282 | 21.74262 | 33820 ft | 438 kts | 193° |
| 2026-05-05 16:12 | 50.34332 | 21.70756 | 33850 ft | 436 kts | 193° |
| 2026-05-05 16:13 | 50.19418 | 21.66376 | 33848 ft | 436 kts | 193° |
| 2026-05-05 16:13 | 50.13453 | 21.64624 | 33863 ft | 436 kts | 193° |
| 2026-05-05 16:14 | 50.01550 | 21.61171 | 33870 ft | 435 kts | 193° |
| 2026-05-05 16:15 | 49.89625 | 21.57727 | 33864 ft | 436 kts | 193° |
| 2026-05-05 16:16 | 49.77703 | 21.54293 | 33879 ft | 437 kts | 193° |
| 2026-05-05 16:17 | 49.68712 | 21.51704 | 33875 ft | 439 kts | 192° |
| 2026-05-05 16:18 | 49.59699 | 21.49126 | 33883 ft | 439 kts | 192° |
| 2026-05-05 16:19 | 49.50679 | 21.46580 | 33895 ft | 440 kts | 192° |
| 2026-05-05 16:19 | 49.41648 | 21.44031 | 33914 ft | 439 kts | 192° |
| 2026-05-05 16:20 | 49.29453 | 21.41817 | 33899 ft | 443 kts | 188° |
| 2026-05-05 16:22 | 49.14350 | 21.39406 | 33920 ft | 442 kts | 188° |
| 2026-05-05 16:23 | 49.02165 | 21.37344 | 33922 ft | 442 kts | 188° |
| 2026-05-05 16:23 | 48.92997 | 21.35836 | 33925 ft | 442 kts | 188° |
| 2026-05-05 16:24 | 48.86877 | 21.34825 | 33929 ft | 442 kts | 188° |
| 2026-05-05 16:25 | 48.77713 | 21.33311 | 33936 ft | 441 kts | 188° |
| 2026-05-05 16:25 | 48.68564 | 21.31801 | 33940 ft | 441 kts | 188° |
| 2026-05-05 16:26 | 48.63493 | 21.30973 | 34418 ft | 440 kts | 188° |
| 2026-05-05 16:26 | 48.57356 | 21.30015 | 34777 ft | 447 kts | 184° |
| 2026-05-05 16:27 | 48.54238 | 21.30154 | 34901 ft | 451 kts | 175° |
| 2026-05-05 16:27 | 48.51158 | 21.31091 | 34925 ft | 453 kts | 165° |
| 2026-05-05 16:27 | 48.45445 | 21.35169 | 34921 ft | 457 kts | 151° |
| 2026-05-05 16:28 | 48.39952 | 21.39994 | 34923 ft | 457 kts | 151° |
| 2026-05-05 16:28 | 48.34450 | 21.44775 | 34924 ft | 457 kts | 151° |
| 2026-05-05 16:29 | 48.28937 | 21.49558 | 34923 ft | 458 kts | 152° |
| 2026-05-05 16:29 | 48.24348 | 21.53545 | 34926 ft | 458 kts | 152° |
| 2026-05-05 16:30 | 48.17921 | 21.59118 | 34932 ft | 459 kts | 152° |
| 2026-05-05 16:30 | 48.12391 | 21.63898 | 34935 ft | 459 kts | 152° |
| 2026-05-05 16:31 | 48.06864 | 21.68661 | 34936 ft | 458 kts | 152° |
| 2026-05-05 16:31 | 48.01331 | 21.73408 | 34941 ft | 458 kts | 151° |
| 2026-05-05 16:32 | 47.95811 | 21.78143 | 34933 ft | 458 kts | 151° |
| 2026-05-05 16:32 | 47.90288 | 21.82871 | 34935 ft | 458 kts | 152° |